sensor_id;sensor_type;location;lat;lon;timestamp;P1;durP1;ratioP1;P2;durP2;ratioP2
10436;SDS011;5265;50.006;9.202;2023-03-16T10:49:40;8.80;;;6.77;;
10436;SDS011;5265;50.006;9.202;2023-03-16T10:52:15;8.43;;;6.83;;
10436;SDS011;5265;50.006;9.202;2023-03-16T10:54:49;8.63;;;6.77;;
10436;SDS011;5265;50.006;9.202;2023-03-16T10:57:24;9.43;;;6.83;;
10436;SDS011;5265;50.006;9.202;2023-03-16T10:59:58;8.43;;;6.30;;
10436;SDS011;5265;50.006;9.202;2023-03-16T11:02:31;14.20;;;7.60;;
10436;SDS011;5265;50.006;9.202;2023-03-16T11:05:18;7.73;;;5.63;;
10436;SDS011;5265;50.006;9.202;2023-03-16T11:07:55;9.13;;;6.70;;
10436;SDS011;5265;50.006;9.202;2023-03-16T11:10:30;8.20;;;6.00;;
10436;SDS011;5265;50.006;9.202;2023-03-16T11:13:04;8.57;;;6.30;;
10436;SDS011;5265;50.006;9.202;2023-03-16T11:15:35;6.83;;;5.63;;
10436;SDS011;5265;50.006;9.202;2023-03-16T11:18:05;11.40;;;6.23;;
10436;SDS011;5265;50.006;9.202;2023-03-16T11:20:40;9.20;;;5.67;;
10436;SDS011;5265;50.006;9.202;2023-03-16T11:23:10;8.00;;;6.70;;
10436;SDS011;5265;50.006;9.202;2023-03-16T11:25:44;8.30;;;5.63;;
10436;SDS011;5265;50.006;9.202;2023-03-16T11:28:14;6.97;;;6.23;;
10436;SDS011;5265;50.006;9.202;2023-03-16T11:30:45;10.30;;;6.87;;
10436;SDS011;5265;50.006;9.202;2023-03-16T11:33:14;8.60;;;7.10;;
10436;SDS011;5265;50.006;9.202;2023-03-16T11:35:45;7.37;;;6.20;;
10436;SDS011;5265;50.006;9.202;2023-03-16T11:38:15;9.67;;;6.87;;
10436;SDS011;5265;50.006;9.202;2023-03-16T11:40:51;8.03;;;6.20;;
10436;SDS011;5265;50.006;9.202;2023-03-16T11:46:07;8.33;;;5.77;;
10436;SDS011;5265;50.006;9.202;2023-03-16T11:48:36;6.50;;;5.20;;
10436;SDS011;5265;50.006;9.202;2023-03-16T11:51:10;6.40;;;5.37;;
10436;SDS011;5265;50.006;9.202;2023-03-16T11:53:46;5.67;;;5.17;;
10436;SDS011;5265;50.006;9.202;2023-03-16T11:56:22;8.07;;;5.93;;
10436;SDS011;5265;50.006;9.202;2023-03-16T11:59:09;6.77;;;5.27;;
10436;SDS011;5265;50.006;9.202;2023-03-16T12:01:41;8.00;;;6.30;;
10436;SDS011;5265;50.006;9.202;2023-03-16T12:04:21;7.60;;;6.00;;
10436;SDS011;5265;50.006;9.202;2023-03-16T12:06:55;8.30;;;6.00;;
10436;SDS011;5265;50.006;9.202;2023-03-16T12:09:36;5.57;;;5.07;;
10436;SDS011;5265;50.006;9.202;2023-03-16T12:12:15;7.20;;;5.80;;
10436;SDS011;5265;50.006;9.202;2023-03-16T12:14:51;6.53;;;4.80;;
10436;SDS011;5265;50.006;9.202;2023-03-16T12:17:22;5.30;;;4.80;;
10436;SDS011;5265;50.006;9.202;2023-03-16T12:19:54;8.00;;;4.53;;
10436;SDS011;5265;50.006;9.202;2023-03-16T12:22:28;5.40;;;4.90;;
10436;SDS011;5265;50.006;9.202;2023-03-16T12:24:59;6.73;;;5.30;;
10436;SDS011;5265;50.006;9.202;2023-03-16T12:27:30;6.03;;;5.13;;
10436;SDS011;5265;50.006;9.202;2023-03-16T12:30:02;9.20;;;5.07;;
10436;SDS011;5265;50.006;9.202;2023-03-16T12:32:38;5.63;;;4.23;;
10436;SDS011;5265;50.006;9.202;2023-03-16T12:35:16;4.97;;;4.50;;
10436;SDS011;5265;50.006;9.202;2023-03-16T12:37:52;4.73;;;4.33;;
10436;SDS011;5265;50.006;9.202;2023-03-16T12:40:26;4.90;;;4.40;;
10436;SDS011;5265;50.006;9.202;2023-03-16T12:43:02;7.00;;;4.63;;
10436;SDS011;5265;50.006;9.202;2023-03-16T12:45:35;6.33;;;4.20;;
10436;SDS011;5265;50.006;9.202;2023-03-16T12:48:09;6.70;;;5.03;;
10436;SDS011;5265;50.006;9.202;2023-03-16T12:50:47;6.43;;;5.17;;
10436;SDS011;5265;50.006;9.202;2023-03-16T12:53:39;5.17;;;4.67;;
10436;SDS011;5265;50.006;9.202;2023-03-16T12:56:08;5.90;;;4.00;;
10436;SDS011;5265;50.006;9.202;2023-03-16T12:58:44;6.97;;;5.30;;
10436;SDS011;5265;50.006;9.202;2023-03-16T13:01:13;7.63;;;5.07;;
10436;SDS011;5265;50.006;9.202;2023-03-16T13:03:48;5.70;;;4.33;;
10436;SDS011;5265;50.006;9.202;2023-03-16T13:06:17;6.77;;;5.57;;
10436;SDS011;5265;50.006;9.202;2023-03-16T13:08:50;5.97;;;5.20;;
10436;SDS011;5265;50.006;9.202;2023-03-16T13:11:21;5.87;;;5.27;;
10436;SDS011;5265;50.006;9.202;2023-03-16T13:13:50;6.00;;;4.83;;
10436;SDS011;5265;50.006;9.202;2023-03-16T13:16:22;5.70;;;5.20;;
10436;SDS011;5265;50.006;9.202;2023-03-16T13:18:51;5.10;;;4.37;;
10436;SDS011;5265;50.006;9.202;2023-03-16T13:21:19;4.77;;;4.27;;
10436;SDS011;5265;50.006;9.202;2023-03-16T13:23:55;5.40;;;4.00;;
10436;SDS011;5265;50.006;9.202;2023-03-16T13:29:18;6.87;;;5.30;;
10436;SDS011;5265;50.006;9.202;2023-03-16T13:31:48;4.70;;;4.20;;
10436;SDS011;5265;50.006;9.202;2023-03-16T13:34:18;6.57;;;4.20;;
10436;SDS011;5265;50.006;9.202;2023-03-16T13:36:49;11.63;;;3.80;;
10436;SDS011;5265;50.006;9.202;2023-03-16T13:39:21;4.40;;;3.80;;
10436;SDS011;5265;50.006;9.202;2023-03-16T13:41:55;3.97;;;3.67;;
10436;SDS011;5265;50.006;9.202;2023-03-16T13:44:24;4.53;;;3.93;;
10436;SDS011;5265;50.006;9.202;2023-03-16T13:46:54;3.70;;;3.40;;
10436;SDS011;5265;50.006;9.202;2023-03-16T13:49:22;4.30;;;3.90;;
10436;SDS011;5265;50.006;9.202;2023-03-16T13:51:51;4.50;;;4.10;;
10436;SDS011;5265;50.006;9.202;2023-03-16T13:54:22;4.23;;;3.90;;
10436;SDS011;5265;50.006;9.202;2023-03-16T13:56:54;6.03;;;4.20;;
10436;SDS011;5265;50.006;9.202;2023-03-16T13:59:23;7.40;;;4.20;;
10436;SDS011;5265;50.006;9.202;2023-03-16T14:01:55;5.10;;;3.73;;
10436;SDS011;5265;50.006;9.202;2023-03-16T14:04:24;6.40;;;3.40;;
10436;SDS011;5265;50.006;9.202;2023-03-16T14:06:54;4.27;;;3.70;;
10436;SDS011;5265;50.006;9.202;2023-03-16T14:09:25;6.27;;;3.77;;
10436;SDS011;5265;50.006;9.202;2023-03-16T14:11:55;5.43;;;3.50;;
10436;SDS011;5265;50.006;9.202;2023-03-16T14:14:25;6.93;;;4.30;;
10436;SDS011;5265;50.006;9.202;2023-03-16T14:16:58;7.67;;;4.10;;
10436;SDS011;5265;50.006;9.202;2023-03-16T14:19:29;6.80;;;5.00;;
10436;SDS011;5265;50.006;9.202;2023-03-16T14:22:02;10.70;;;3.83;;
10436;SDS011;5265;50.006;9.202;2023-03-16T14:24:33;3.90;;;3.60;;
10436;SDS011;5265;50.006;9.202;2023-03-16T14:27:14;4.47;;;4.07;;
10436;SDS011;5265;50.006;9.202;2023-03-16T14:29:44;5.17;;;4.67;;
10436;SDS011;5265;50.006;9.202;2023-03-16T14:32:18;4.30;;;3.90;;
10436;SDS011;5265;50.006;9.202;2023-03-16T14:34:48;4.70;;;3.37;;
10436;SDS011;5265;50.006;9.202;2023-03-16T14:37:16;5.83;;;3.93;;
10436;SDS011;5265;50.006;9.202;2023-03-16T14:39:56;7.63;;;4.13;;
10436;SDS011;5265;50.006;9.202;2023-03-16T14:42:25;5.30;;;3.97;;
10436;SDS011;5265;50.006;9.202;2023-03-16T14:44:54;4.80;;;3.87;;
10436;SDS011;5265;50.006;9.202;2023-03-16T14:47:23;5.50;;;4.47;;
10436;SDS011;5265;50.006;9.202;2023-03-16T14:49:54;4.20;;;3.43;;
10436;SDS011;5265;50.006;9.202;2023-03-16T14:52:23;5.80;;;4.30;;
10436;SDS011;5265;50.006;9.202;2023-03-16T14:54:54;5.60;;;3.90;;
10436;SDS011;5265;50.006;9.202;2023-03-16T14:57:22;3.27;;;2.97;;
10436;SDS011;5265;50.006;9.202;2023-03-16T14:59:51;4.83;;;3.10;;
10436;SDS011;5265;50.006;9.202;2023-03-16T15:02:20;3.47;;;3.03;;
10436;SDS011;5265;50.006;9.202;2023-03-16T15:04:49;3.33;;;3.13;;
10436;SDS011;5265;50.006;9.202;2023-03-16T15:07:20;3.47;;;2.93;;
10436;SDS011;5265;50.006;9.202;2023-03-16T15:09:49;4.93;;;2.63;;
10436;SDS011;5265;50.006;9.202;2023-03-16T15:12:20;7.83;;;3.80;;
10436;SDS011;5265;50.006;9.202;2023-03-16T15:14:50;3.23;;;3.03;;
10436;SDS011;5265;50.006;9.202;2023-03-16T15:17:45;3.07;;;2.80;;
10436;SDS011;5265;50.006;9.202;2023-03-16T15:20:14;3.10;;;2.80;;
10436;SDS011;5265;50.006;9.202;2023-03-16T15:22:42;4.50;;;3.23;;
10436;SDS011;5265;50.006;9.202;2023-03-16T15:25:19;3.07;;;2.60;;
10436;SDS011;5265;50.006;9.202;2023-03-16T15:27:49;3.17;;;2.90;;
10436;SDS011;5265;50.006;9.202;2023-03-16T15:30:19;3.20;;;2.60;;
10436;SDS011;5265;50.006;9.202;2023-03-16T15:32:48;3.77;;;2.90;;
10436;SDS011;5265;50.006;9.202;2023-03-16T15:35:17;2.27;;;2.07;;
10436;SDS011;5265;50.006;9.202;2023-03-16T15:37:45;4.73;;;2.50;;
10436;SDS011;5265;50.006;9.202;2023-03-16T15:40:14;3.13;;;2.87;;
10436;SDS011;5265;50.006;9.202;2023-03-16T15:42:42;6.63;;;2.87;;
10436;SDS011;5265;50.006;9.202;2023-03-16T15:45:14;5.00;;;3.17;;
10436;SDS011;5265;50.006;9.202;2023-03-16T15:47:43;3.67;;;2.97;;
10436;SDS011;5265;50.006;9.202;2023-03-16T15:50:14;4.43;;;2.50;;
10436;SDS011;5265;50.006;9.202;2023-03-16T15:52:43;3.37;;;2.80;;
10436;SDS011;5265;50.006;9.202;2023-03-16T15:55:16;2.77;;;2.57;;
10436;SDS011;5265;50.006;9.202;2023-03-16T15:57:45;7.07;;;3.13;;
10436;SDS011;5265;50.006;9.202;2023-03-16T16:00:21;2.87;;;2.67;;
10436;SDS011;5265;50.006;9.202;2023-03-16T16:02:53;3.40;;;1.90;;
10436;SDS011;5265;50.006;9.202;2023-03-16T16:05:22;2.73;;;2.53;;
10436;SDS011;5265;50.006;9.202;2023-03-16T16:07:51;3.50;;;2.53;;
10436;SDS011;5265;50.006;9.202;2023-03-16T16:10:18;3.70;;;2.30;;
10436;SDS011;5265;50.006;9.202;2023-03-16T16:12:46;2.80;;;2.60;;
10436;SDS011;5265;50.006;9.202;2023-03-16T16:15:18;6.80;;;2.40;;
10436;SDS011;5265;50.006;9.202;2023-03-16T16:17:49;4.87;;;2.63;;
10436;SDS011;5265;50.006;9.202;2023-03-16T16:20:20;2.47;;;2.07;;
10436;SDS011;5265;50.006;9.202;2023-03-16T16:22:49;9.67;;;2.40;;
10436;SDS011;5265;50.006;9.202;2023-03-16T16:25:17;6.20;;;3.50;;
10436;SDS011;5265;50.006;9.202;2023-03-16T16:27:46;7.47;;;2.40;;
10436;SDS011;5265;50.006;9.202;2023-03-16T16:30:19;2.63;;;2.43;;
10436;SDS011;5265;50.006;9.202;2023-03-16T16:32:49;6.30;;;2.57;;
10436;SDS011;5265;50.006;9.202;2023-03-16T16:35:19;5.17;;;2.40;;
10436;SDS011;5265;50.006;9.202;2023-03-16T16:37:48;5.60;;;3.30;;
10436;SDS011;5265;50.006;9.202;2023-03-16T16:40:17;4.20;;;3.77;;
10436;SDS011;5265;50.006;9.202;2023-03-16T16:42:47;6.63;;;3.67;;
10436;SDS011;5265;50.006;9.202;2023-03-16T16:45:17;4.57;;;4.17;;
10436;SDS011;5265;50.006;9.202;2023-03-16T16:47:47;4.37;;;3.97;;
10436;SDS011;5265;50.006;9.202;2023-03-16T16:50:19;4.93;;;2.90;;
10436;SDS011;5265;50.006;9.202;2023-03-16T16:52:48;4.30;;;3.50;;
10436;SDS011;5265;50.006;9.202;2023-03-16T16:55:16;8.97;;;3.00;;
10436;SDS011;5265;50.006;9.202;2023-03-16T16:57:45;5.43;;;3.23;;
10436;SDS011;5265;50.006;9.202;2023-03-16T17:00:15;3.17;;;2.87;;
10436;SDS011;5265;50.006;9.202;2023-03-16T17:02:44;4.70;;;3.00;;
10436;SDS011;5265;50.006;9.202;2023-03-16T17:05:16;3.30;;;3.10;;
10436;SDS011;5265;50.006;9.202;2023-03-16T17:07:47;3.63;;;2.87;;
10436;SDS011;5265;50.006;9.202;2023-03-16T17:10:17;6.37;;;3.00;;
10436;SDS011;5265;50.006;9.202;2023-03-16T17:12:46;5.30;;;2.90;;
10436;SDS011;5265;50.006;9.202;2023-03-16T17:15:22;4.23;;;3.13;;
10436;SDS011;5265;50.006;9.202;2023-03-16T17:17:53;3.93;;;2.50;;
10436;SDS011;5265;50.006;9.202;2023-03-16T17:20:24;3.90;;;2.87;;
10436;SDS011;5265;50.006;9.202;2023-03-16T17:22:55;5.60;;;3.50;;
10436;SDS011;5265;50.006;9.202;2023-03-16T17:25:24;5.03;;;2.77;;
10436;SDS011;5265;50.006;9.202;2023-03-16T17:27:54;2.70;;;2.50;;
10436;SDS011;5265;50.006;9.202;2023-03-16T17:30:25;9.23;;;4.30;;
10436;SDS011;5265;50.006;9.202;2023-03-16T17:32:55;4.43;;;3.33;;
10436;SDS011;5265;50.006;9.202;2023-03-16T17:35:25;7.77;;;5.60;;
10436;SDS011;5265;50.006;9.202;2023-03-16T17:37:56;9.10;;;5.10;;
10436;SDS011;5265;50.006;9.202;2023-03-16T17:40:24;7.53;;;5.07;;
10436;SDS011;5265;50.006;9.202;2023-03-16T17:42:53;5.57;;;4.53;;
10436;SDS011;5265;50.006;9.202;2023-03-16T17:45:22;5.70;;;4.03;;
10436;SDS011;5265;50.006;9.202;2023-03-16T17:47:52;5.20;;;3.87;;
10436;SDS011;5265;50.006;9.202;2023-03-16T17:50:21;6.67;;;2.70;;
10436;SDS011;5265;50.006;9.202;2023-03-16T17:52:51;10.60;;;3.37;;
10436;SDS011;5265;50.006;9.202;2023-03-16T17:55:21;8.50;;;3.20;;
10436;SDS011;5265;50.006;9.202;2023-03-16T17:57:51;6.57;;;3.07;;
10436;SDS011;5265;50.006;9.202;2023-03-16T18:00:24;7.53;;;3.27;;
10436;SDS011;5265;50.006;9.202;2023-03-16T18:02:54;4.50;;;2.17;;
10436;SDS011;5265;50.006;9.202;2023-03-16T18:05:24;3.20;;;2.90;;
10436;SDS011;5265;50.006;9.202;2023-03-16T18:07:53;14.13;;;2.47;;
10436;SDS011;5265;50.006;9.202;2023-03-16T18:10:24;4.10;;;3.10;;
10436;SDS011;5265;50.006;9.202;2023-03-16T18:12:56;4.93;;;2.80;;
10436;SDS011;5265;50.006;9.202;2023-03-16T18:15:26;4.13;;;3.73;;
10436;SDS011;5265;50.006;9.202;2023-03-16T18:17:56;10.03;;;3.40;;
10436;SDS011;5265;50.006;9.202;2023-03-16T18:20:26;3.40;;;3.10;;
10436;SDS011;5265;50.006;9.202;2023-03-16T18:22:57;3.47;;;3.07;;
10436;SDS011;5265;50.006;9.202;2023-03-16T18:25:29;3.50;;;3.20;;
10436;SDS011;5265;50.006;9.202;2023-03-16T18:27:59;6.00;;;3.40;;
10436;SDS011;5265;50.006;9.202;2023-03-16T18:30:28;7.17;;;3.50;;
10436;SDS011;5265;50.006;9.202;2023-03-16T18:32:57;4.40;;;3.60;;
10436;SDS011;5265;50.006;9.202;2023-03-16T18:35:27;15.53;;;2.80;;
10436;SDS011;5265;50.006;9.202;2023-03-16T18:37:56;3.10;;;2.90;;
10436;SDS011;5265;50.006;9.202;2023-03-16T18:40:25;3.80;;;2.60;;
10436;SDS011;5265;50.006;9.202;2023-03-16T18:42:55;5.70;;;3.60;;
10436;SDS011;5265;50.006;9.202;2023-03-16T18:45:25;4.53;;;3.23;;
10436;SDS011;5265;50.006;9.202;2023-03-16T18:47:55;5.53;;;4.33;;
10436;SDS011;5265;50.006;9.202;2023-03-16T18:50:26;6.50;;;4.90;;
10436;SDS011;5265;50.006;9.202;2023-03-16T18:52:55;6.00;;;4.10;;
10436;SDS011;5265;50.006;9.202;2023-03-16T18:55:24;5.27;;;3.07;;
10436;SDS011;5265;50.006;9.202;2023-03-16T18:57:53;4.53;;;3.40;;
10436;SDS011;5265;50.006;9.202;2023-03-16T19:00:24;3.20;;;3.00;;
10436;SDS011;5265;50.006;9.202;2023-03-16T19:02:56;3.10;;;2.80;;
10436;SDS011;5265;50.006;9.202;2023-03-16T19:05:27;2.83;;;2.63;;
10436;SDS011;5265;50.006;9.202;2023-03-16T19:07:58;3.33;;;2.90;;
10436;SDS011;5265;50.006;9.202;2023-03-16T19:10:26;4.47;;;3.23;;
10436;SDS011;5265;50.006;9.202;2023-03-16T19:12:57;3.40;;;3.10;;
10436;SDS011;5265;50.006;9.202;2023-03-16T19:15:26;6.20;;;2.97;;
10436;SDS011;5265;50.006;9.202;2023-03-16T19:17:56;5.37;;;2.60;;
10436;SDS011;5265;50.006;9.202;2023-03-16T19:20:25;3.10;;;2.87;;
10436;SDS011;5265;50.006;9.202;2023-03-16T19:22:57;2.80;;;2.60;;
10436;SDS011;5265;50.006;9.202;2023-03-16T19:25:28;6.23;;;3.10;;
10436;SDS011;5265;50.006;9.202;2023-03-16T19:27:58;4.70;;;3.97;;
10436;SDS011;5265;50.006;9.202;2023-03-16T19:30:30;3.50;;;3.20;;
10436;SDS011;5265;50.006;9.202;2023-03-16T19:33:01;4.17;;;3.50;;
10436;SDS011;5265;50.006;9.202;2023-03-16T19:35:28;3.17;;;2.93;;
10436;SDS011;5265;50.006;9.202;2023-03-16T19:37:58;4.97;;;2.70;;
10436;SDS011;5265;50.006;9.202;2023-03-16T19:40:26;4.47;;;3.40;;
10436;SDS011;5265;50.006;9.202;2023-03-16T19:42:56;6.67;;;3.03;;
10436;SDS011;5265;50.006;9.202;2023-03-16T19:45:24;4.83;;;3.30;;
10436;SDS011;5265;50.006;9.202;2023-03-16T19:47:56;3.80;;;3.07;;
10436;SDS011;5265;50.006;9.202;2023-03-16T19:50:26;3.87;;;3.23;;
10436;SDS011;5265;50.006;9.202;2023-03-16T19:52:54;3.30;;;2.97;;
10436;SDS011;5265;50.006;9.202;2023-03-16T19:55:27;11.13;;;3.93;;
10436;SDS011;5265;50.006;9.202;2023-03-16T19:57:58;3.27;;;3.07;;
10436;SDS011;5265;50.006;9.202;2023-03-16T20:00:32;3.73;;;3.00;;
10436;SDS011;5265;50.006;9.202;2023-03-16T20:03:02;3.63;;;3.17;;
10436;SDS011;5265;50.006;9.202;2023-03-16T20:05:32;3.57;;;3.27;;
10436;SDS011;5265;50.006;9.202;2023-03-16T20:08:05;12.53;;;3.33;;
10436;SDS011;5265;50.006;9.202;2023-03-16T20:10:43;3.30;;;2.90;;
10436;SDS011;5265;50.006;9.202;2023-03-16T20:13:11;3.97;;;3.63;;
10436;SDS011;5265;50.006;9.202;2023-03-16T20:15:39;5.17;;;3.53;;
10436;SDS011;5265;50.006;9.202;2023-03-16T20:18:10;5.07;;;3.90;;
10436;SDS011;5265;50.006;9.202;2023-03-16T20:20:41;5.87;;;3.90;;
10436;SDS011;5265;50.006;9.202;2023-03-16T20:23:15;6.57;;;4.03;;
10436;SDS011;5265;50.006;9.202;2023-03-16T20:25:45;5.60;;;3.80;;
10436;SDS011;5265;50.006;9.202;2023-03-16T20:28:15;6.17;;;3.90;;
10436;SDS011;5265;50.006;9.202;2023-03-16T20:30:44;9.53;;;4.10;;
10436;SDS011;5265;50.006;9.202;2023-03-16T20:33:17;8.27;;;3.87;;
10436;SDS011;5265;50.006;9.202;2023-03-16T20:35:46;4.30;;;3.67;;
10436;SDS011;5265;50.006;9.202;2023-03-16T20:38:15;5.57;;;4.27;;
10436;SDS011;5265;50.006;9.202;2023-03-16T20:40:43;7.97;;;3.70;;
10436;SDS011;5265;50.006;9.202;2023-03-16T20:43:19;5.97;;;4.13;;
10436;SDS011;5265;50.006;9.202;2023-03-16T20:45:49;3.97;;;3.63;;
10436;SDS011;5265;50.006;9.202;2023-03-16T20:48:22;3.70;;;3.40;;
10436;SDS011;5265;50.006;9.202;2023-03-16T20:50:52;3.57;;;3.27;;
10436;SDS011;5265;50.006;9.202;2023-03-16T20:53:20;7.47;;;4.20;;
10436;SDS011;5265;50.006;9.202;2023-03-16T20:55:48;4.63;;;3.33;;
10436;SDS011;5265;50.006;9.202;2023-03-16T20:58:18;6.00;;;3.93;;
10436;SDS011;5265;50.006;9.202;2023-03-16T21:00:46;5.70;;;4.33;;
10436;SDS011;5265;50.006;9.202;2023-03-16T21:03:16;4.80;;;4.30;;
10436;SDS011;5265;50.006;9.202;2023-03-16T21:05:46;4.77;;;4.37;;
10436;SDS011;5265;50.006;9.202;2023-03-16T21:08:14;13.10;;;3.60;;
10436;SDS011;5265;50.006;9.202;2023-03-16T21:10:42;7.33;;;4.40;;
10436;SDS011;5265;50.006;9.202;2023-03-16T21:13:13;4.30;;;3.90;;
10436;SDS011;5265;50.006;9.202;2023-03-16T21:15:42;6.37;;;3.37;;
10436;SDS011;5265;50.006;9.202;2023-03-16T21:18:12;5.60;;;4.03;;
10436;SDS011;5265;50.006;9.202;2023-03-16T21:20:41;3.83;;;3.43;;
10436;SDS011;5265;50.006;9.202;2023-03-16T21:23:12;3.80;;;3.37;;
10436;SDS011;5265;50.006;9.202;2023-03-16T21:25:42;5.80;;;3.93;;
10436;SDS011;5265;50.006;9.202;2023-03-16T21:28:09;3.47;;;3.17;;
10436;SDS011;5265;50.006;9.202;2023-03-16T21:30:38;3.73;;;3.43;;
10436;SDS011;5265;50.006;9.202;2023-03-16T21:33:11;4.67;;;3.80;;
10436;SDS011;5265;50.006;9.202;2023-03-16T21:35:42;5.37;;;4.17;;
10436;SDS011;5265;50.006;9.202;2023-03-16T21:38:12;5.03;;;3.90;;
10436;SDS011;5265;50.006;9.202;2023-03-16T21:40:40;12.73;;;4.10;;
10436;SDS011;5265;50.006;9.202;2023-03-16T21:43:07;3.97;;;3.27;;
10436;SDS011;5265;50.006;9.202;2023-03-16T21:45:35;5.63;;;4.00;;
10436;SDS011;5265;50.006;9.202;2023-03-16T21:48:03;4.33;;;3.87;;
10436;SDS011;5265;50.006;9.202;2023-03-16T21:50:32;4.47;;;3.80;;
10436;SDS011;5265;50.006;9.202;2023-03-16T21:53:01;5.60;;;3.70;;
10436;SDS011;5265;50.006;9.202;2023-03-16T21:55:30;4.70;;;4.27;;
10436;SDS011;5265;50.006;9.202;2023-03-16T21:57:58;6.30;;;3.70;;
10436;SDS011;5265;50.006;9.202;2023-03-16T22:00:27;3.17;;;2.90;;
10436;SDS011;5265;50.006;9.202;2023-03-16T22:02:57;8.30;;;4.50;;
10436;SDS011;5265;50.006;9.202;2023-03-16T22:05:35;3.97;;;3.43;;
10436;SDS011;5265;50.006;9.202;2023-03-16T22:08:09;3.77;;;3.43;;
10436;SDS011;5265;50.006;9.202;2023-03-16T22:10:40;5.30;;;4.13;;
10436;SDS011;5265;50.006;9.202;2023-03-16T22:13:08;3.70;;;3.40;;
10436;SDS011;5265;50.006;9.202;2023-03-16T22:15:36;4.03;;;3.73;;
10436;SDS011;5265;50.006;9.202;2023-03-16T22:18:05;4.07;;;3.70;;
10436;SDS011;5265;50.006;9.202;2023-03-16T22:20:34;4.10;;;3.53;;
10436;SDS011;5265;50.006;9.202;2023-03-16T22:23:02;3.87;;;3.43;;
10436;SDS011;5265;50.006;9.202;2023-03-16T22:25:30;4.60;;;4.20;;
10436;SDS011;5265;50.006;9.202;2023-03-16T22:27:58;4.33;;;3.93;;
10436;SDS011;5265;50.006;9.202;2023-03-16T22:30:26;5.50;;;3.70;;
10436;SDS011;5265;50.006;9.202;2023-03-16T22:32:57;5.33;;;4.00;;
10436;SDS011;5265;50.006;9.202;2023-03-16T22:35:26;4.03;;;3.67;;
10436;SDS011;5265;50.006;9.202;2023-03-16T22:37:56;3.67;;;3.37;;
10436;SDS011;5265;50.006;9.202;2023-03-16T22:40:25;7.17;;;4.30;;
10436;SDS011;5265;50.006;9.202;2023-03-16T22:42:54;6.87;;;4.17;;
10436;SDS011;5265;50.006;9.202;2023-03-16T22:45:24;4.63;;;4.20;;
10436;SDS011;5265;50.006;9.202;2023-03-16T22:47:52;4.93;;;4.07;;
10436;SDS011;5265;50.006;9.202;2023-03-16T22:50:21;7.70;;;2.90;;
10436;SDS011;5265;50.006;9.202;2023-03-16T22:52:49;3.47;;;3.17;;
10436;SDS011;5265;50.006;9.202;2023-03-16T22:55:18;5.07;;;4.23;;
10436;SDS011;5265;50.006;9.202;2023-03-16T22:57:46;4.20;;;3.60;;
10436;SDS011;5265;50.006;9.202;2023-03-16T23:00:16;5.03;;;3.73;;
10436;SDS011;5265;50.006;9.202;2023-03-16T23:02:47;4.50;;;3.23;;
10436;SDS011;5265;50.006;9.202;2023-03-16T23:05:18;4.40;;;3.70;;
10436;SDS011;5265;50.006;9.202;2023-03-16T23:07:47;4.73;;;3.77;;
10436;SDS011;5265;50.006;9.202;2023-03-16T23:10:15;7.03;;;4.00;;
10436;SDS011;5265;50.006;9.202;2023-03-16T23:12:43;4.67;;;3.67;;
10436;SDS011;5265;50.006;9.202;2023-03-16T23:15:14;3.83;;;3.53;;
10436;SDS011;5265;50.006;9.202;2023-03-16T23:17:42;3.73;;;2.90;;
10436;SDS011;5265;50.006;9.202;2023-03-16T23:20:19;4.80;;;4.10;;
10436;SDS011;5265;50.006;9.202;2023-03-16T23:22:47;3.83;;;3.53;;
10436;SDS011;5265;50.006;9.202;2023-03-16T23:25:14;4.73;;;3.80;;
10436;SDS011;5265;50.006;9.202;2023-03-16T23:27:42;3.73;;;3.43;;
10436;SDS011;5265;50.006;9.202;2023-03-16T23:30:14;4.07;;;3.17;;
10436;SDS011;5265;50.006;9.202;2023-03-16T23:32:45;5.20;;;4.17;;
10436;SDS011;5265;50.006;9.202;2023-03-16T23:35:14;6.03;;;3.80;;
10436;SDS011;5265;50.006;9.202;2023-03-16T23:37:45;4.30;;;3.60;;
10436;SDS011;5265;50.006;9.202;2023-03-16T23:40:13;6.40;;;4.80;;
10436;SDS011;5265;50.006;9.202;2023-03-16T23:42:41;5.13;;;3.73;;
10436;SDS011;5265;50.006;9.202;2023-03-16T23:45:19;4.93;;;4.00;;
10436;SDS011;5265;50.006;9.202;2023-03-16T23:47:49;6.10;;;3.53;;
10436;SDS011;5265;50.006;9.202;2023-03-16T23:50:21;6.10;;;3.73;;
10436;SDS011;5265;50.006;9.202;2023-03-16T23:52:53;4.63;;;4.23;;
10436;SDS011;5265;50.006;9.202;2023-03-16T23:55:23;3.97;;;3.10;;
10436;SDS011;5265;50.006;9.202;2023-03-16T23:57:53;10.93;;;4.10;;
